Terminal Aerodrome Forecast
Issued by NWS

Home | Current Version | Previous Version | Text Only | Print | Product List | Glossary On
Versions: 1 2 3 4 5 6 7 8 9 10 11 12 13 14 15 16 17 18 19
876
FTUS44 KTSA 282328
TAFFYV
TAF
KFYV 282328Z 2900/2924 15008KT P6SM BKN040
     FM290600 15012KT P6SM BKN015
     FM291400 16012G18KT 6SM -TSRA BKN015CB
      TEMPO 2915/2919 VRB20G40KT 2SM TSRA BKN007CB
     FM292100 16015KT 6SM -SHRA BKN012=

USA.gov is the U.S. government's official web portal to all federal, state and local government web resources and services.